Nearby METAR Reports

 

EDNY - Friedrichshafen, Germany
Distance from station: O 31km
aktuell: 25.05.2015 06:50
geschlossene Wolkendecke
geschlossene Wolkendecke
 Wind von NO
Wind: NO 4 km/h
Temperatur: 11°C
Taupunkt: 8°C
Luftfeuchte: 82%
Luftdruck: 1017 hPa
Clouds: geschlossene Wolkendecke
Visibility: 10 km
Cloud details: Few Clouds 2042 m
geschlossene Wolkendecke 2987 m
2015/05/25 04:50 EDNY 250450Z AUTO 05002KT 9999 FEW067 OVC098 11/08 Q1017
LSZR - Rheineck/Altenrh, Switzerland
Distance from station: SO 42km
aktuell: 25.05.2015 06:50
sehr leichter Niederschlag, stark bewölkt
sehr leichter Niederschlag, stark bewölkt
 Wind von SSW
Wind: SSW 2 km/h
Temperatur: 12°C
Taupunkt: 10°C
Luftfeuchte: 88%
Luftdruck: 1017 hPa
Zusammenfassung: sehr leichter Niederschlag
Clouds: stark bewölkt
Visibility: 10 km
Cloud details: stark bewölkt 2134 m
2015/05/25 04:50 LSZR 250450Z 21001KT 9999 -RA BKN070 12/10 Q1017 NOSIG RMK A
LSZH - Zurich-Kloten (a, Switzerland
Distance from station: WSW 49km
aktuell: 25.05.2015 06:50
stark bewölkt
stark bewölkt
 Wind von calm
Wind: Windstill
Temperatur: 12°C
Taupunkt: 10°C
Luftfeuchte: 88%
Luftdruck: 1017 hPa
Clouds: stark bewölkt
Visibility: 10 km
Cloud details: Few Clouds 2134 m
stark bewölkt 3353 m
2015/05/25 04:50 LSZH 250450Z 00000KT 9999 FEW070 BKN110 12/10 Q1017 NOSIG
 
EDTD - Donaueschingen, Germany
Distance from station: NW 53km
aktuell: 30.04.2014 18:20
NOT Current
sehr leichter Niederschlag, geschlossene Wolkendecke
sehr leichter Niederschlag, geschlossene Wolkendecke
 Wind von SSW
Wind: SSW 9 km/h
Temperatur: 10°C
gefühlte Temperatur: 9°C
Taupunkt: 10°C
Luftfeuchte: 100%
Luftdruck: 1011 hPa
Zusammenfassung: sehr leichter Niederschlag
Clouds: geschlossene Wolkendecke
Visibility: 9 km
Cloud details: stark bewölkt 213 m
geschlossene Wolkendecke 335 m
2014/04/30 16:20 EDTD 301620Z 20005KT 9000 -RA BKN007 OVC011 10/10 Q1011 LAST ?
ETGZ - Messstetten, Germany
Distance from station: N 54km
aktuell: 30.09.2013 14:20
NOT Current
geschlossene Wolkendecke
geschlossene Wolkendecke
 Wind von varies
Wind: varies 4 km/h
Temperatur: 8°C
Taupunkt: 7°C
Luftfeuchte: 93%
Luftdruck: 1007 hPa
Clouds: geschlossene Wolkendecke
Visibility: 10 km
Cloud details: geschlossene Wolkendecke 213 m
2013/09/30 12:20 ETGZ 301220Z VRB02KT 9999 OVC007 08/07 Q1007 GRN
LOIH - Hohenems-Dornbir, Austria
Distance from station: SO 57km
aktuell: 24.05.2015 12:00
NOT Current
stark bewölkt
stark bewölkt
 Wind von calm
Wind: Windstill
Temperatur: 16°C
Taupunkt: 12°C
Luftfeuchte: 77%
Luftdruck: 1018 hPa
Clouds: stark bewölkt
Cloud details: Few Clouds 610 m
stark bewölkt 3048 m
2015/05/24 10:00 LOIH 241000Z 00000KT 35KM FEW020CU BKN100AC 16/12 Q1018 RMK BKN
 
ETHL - Laupheim (ger-Ar, Germany
Distance from station: NO 84km
aktuell: 25.05.2015 06:20

 Wind von W
Wind: W 6 km/h
Temperatur: 11°C
Taupunkt: 9°C
Luftfeuchte: 88%
Luftdruck: 1017 hPa
Visibility: 6 km
2015/05/25 04:20 ETHL 250420Z AUTO 28003KT 6000 // ////// 11/09 Q1017 ///
EDJA - Memmingen Allgau, Germany
Distance from station: ONO 90km
aktuell: 25.05.2015 06:50
klar
klar
 Wind von S
Wind: S 4 km/h
Temperatur: 10°C
Taupunkt: 8°C
Luftfeuchte: 88%
Luftdruck: 1016 hPa
Zusammenfassung: klar
Visibility: greater than 10 km
2015/05/25 04:50 EDJA 250450Z 18002KT CAVOK 10/08 Q1016
LSME - Emmen, Switzerland
Distance from station: SW 90km
aktuell: 25.05.2015 06:50
stark bewölkt
stark bewölkt
 Wind von calm
Wind: Windstill
Temperatur: 13°C
Taupunkt: 10°C
Luftfeuchte: 82%
Luftdruck: 1017 hPa
Clouds: stark bewölkt
Visibility: 16 miles
Cloud details: teilweise bewölkt 2408 m
stark bewölkt 3048 m
2015/05/25 04:50 LSME 250450Z AUTO 00000KT 9999NDV SCT079 BKN100 13/10 Q1017 RMK WHT
 
LSZC - Buochs, Switzerland
Distance from station: SSW 98km
aktuell: 25.05.2015 06:50
geschlossene Wolkendecke
geschlossene Wolkendecke
 Wind von SW
Wind: SW 6 km/h
Temperatur: 12°C
Taupunkt: 10°C
Luftfeuchte: 88%
Luftdruck: 1017 hPa
Clouds: geschlossene Wolkendecke
Visibility: 10 km
Cloud details: geschlossene Wolkendecke 2134 m
2015/05/25 04:50 LSZC 250450Z AUTO 23003KT 9999 OVC070 12/10 Q1017